Salt Lake City, Utah
Traffic Map
Current Weather Conditions
Salt Lake City, Utah
Broken Clouds
Broken Clouds
15°
Feels Like: 15°
Wind Chill: 15° Ceiling: 15000
Heat Index: 15° Visibility: 10mi
Dew Point: Wind: 0mph
Humidity: 36% Direction: ° ()
Pressure: 29.67in Gusts: 0mph
Raw Report DataKSLC 011053Z 00000KT 10SM FEW100 BKN150 15/00 A2967 RMK AO2 SLP003 T01500000
Traffic Incident Summary
Active as of:
Severity:
Category:
InformationThere was an issue retrieving the traffic information for this location. Please try a different location or try again shortly.
Advertisements
Track Severe Weather on mobile